createdAt,value
2019-03-29T00:00:58.921Z,17.47
2019-03-29T00:03:28.889Z,20.53
2019-03-29T00:05:58.735Z,18.93
2019-03-29T00:08:28.652Z,18.47
2019-03-29T00:10:58.630Z,18.33
2019-03-29T00:13:28.641Z,17.70
2019-03-29T00:15:59.980Z,17.67
2019-03-29T00:18:32.287Z,15.93
2019-03-29T00:21:02.238Z,15.10
2019-03-29T00:23:32.203Z,15.60
2019-03-29T00:26:02.154Z,15.40
2019-03-29T00:28:32.065Z,15.60
2019-03-29T00:31:01.994Z,15.63
2019-03-29T00:33:31.914Z,15.40
2019-03-29T00:36:01.875Z,15.87
2019-03-29T00:38:31.826Z,17.07
2019-03-29T00:41:01.708Z,16.00
2019-03-29T00:43:33.047Z,17.47
2019-03-29T00:46:02.934Z,15.20
2019-03-29T00:48:35.478Z,18.10
2019-03-29T00:51:04.397Z,16.67
2019-03-29T00:53:34.341Z,16.50
2019-03-29T00:56:04.228Z,17.97
2019-03-29T00:58:34.086Z,17.37
2019-03-29T01:01:05.136Z,17.70
2019-03-29T01:03:35.110Z,16.83
2019-03-29T01:06:05.030Z,17.00
2019-03-29T01:08:34.925Z,16.40
2019-03-29T01:11:04.890Z,18.00
2019-03-29T01:13:34.840Z,15.87
2019-03-29T01:16:04.714Z,17.17
2019-03-29T01:18:34.681Z,16.90
2019-03-29T01:21:04.658Z,17.03
2019-03-29T01:23:34.642Z,17.50
2019-03-29T01:26:04.555Z,18.60
2019-03-29T01:28:34.492Z,16.93
2019-03-29T01:31:04.443Z,16.70
2019-03-29T01:33:34.436Z,16.43
2019-03-29T01:36:04.368Z,18.07
2019-03-29T01:38:34.315Z,18.70
2019-03-29T01:41:04.165Z,18.40
2019-03-29T01:43:34.140Z,16.93
2019-03-29T01:46:04.060Z,18.60
2019-03-29T01:48:33.946Z,19.73
2019-03-29T01:51:03.827Z,17.43
2019-03-29T01:53:33.782Z,17.60
2019-03-29T01:56:03.687Z,18.70
2019-03-29T01:58:33.623Z,18.03
2019-03-29T02:01:03.595Z,19.00
2019-03-29T02:03:33.531Z,18.40
2019-03-29T02:06:03.501Z,19.03
2019-03-29T02:08:36.029Z,19.13
2019-03-29T02:11:04.914Z,19.23
2019-03-29T02:13:34.839Z,19.37
2019-03-29T02:16:04.715Z,19.67
2019-03-29T02:18:34.701Z,19.83
2019-03-29T02:21:04.550Z,20.10
2019-03-29T02:23:34.868Z,20.47
2019-03-29T02:26:04.844Z,19.97
2019-03-29T02:28:34.726Z,19.20
2019-03-29T02:31:04.698Z,18.80
2019-03-29T02:33:34.638Z,19.77
2019-03-29T02:36:05.670Z,20.57
2019-03-29T02:38:47.492Z,20.30
2019-03-29T02:41:07.795Z,19.83
2019-03-29T02:43:39.191Z,20.97
2019-03-29T02:46:09.099Z,18.90
2019-03-29T02:48:39.033Z,20.77
2019-03-29T02:51:08.993Z,20.83
2019-03-29T02:53:38.928Z,19.80
2019-03-29T02:56:08.835Z,20.13
2019-03-29T02:58:38.742Z,19.90
2019-03-29T03:01:08.700Z,20.27
2019-03-29T03:03:38.632Z,19.93
2019-03-29T03:06:08.502Z,20.23
2019-03-29T03:08:38.481Z,20.30
2019-03-29T03:11:08.416Z,21.43
2019-03-29T03:13:38.327Z,21.13
2019-03-29T03:16:08.126Z,23.70
2019-03-29T03:18:37.996Z,23.07
2019-03-29T03:21:07.952Z,22.63
2019-03-29T03:23:37.900Z,21.40
2019-03-29T03:26:07.785Z,21.57
2019-03-29T03:28:37.702Z,22.33
2019-03-29T03:31:07.645Z,21.47
2019-03-29T03:33:37.505Z,22.57
2019-03-29T03:36:07.448Z,21.10
2019-03-29T03:38:37.368Z,20.27
2019-03-29T03:41:07.241Z,20.90
2019-03-29T03:43:37.236Z,20.37
2019-03-29T03:46:07.156Z,19.33
2019-03-29T03:48:37.063Z,18.77
2019-03-29T03:51:07.650Z,19.30
2019-03-29T03:53:37.951Z,19.80
2019-03-29T03:56:08.736Z,17.90
2019-03-29T03:58:40.381Z,17.97
2019-03-29T04:01:10.261Z,16.70
2019-03-29T04:03:40.215Z,17.23
2019-03-29T04:06:10.178Z,17.33
2019-03-29T04:08:41.235Z,16.60
2019-03-29T04:11:11.240Z,16.50
2019-03-29T04:13:41.118Z,16.97
2019-03-29T04:16:11.042Z,15.70
2019-03-29T04:18:41.043Z,15.30
2019-03-29T04:21:10.981Z,15.63
2019-03-29T04:23:40.870Z,16.03
2019-03-29T04:26:10.819Z,14.37
2019-03-29T04:28:40.748Z,14.30
2019-03-29T04:31:10.800Z,14.80
2019-03-29T04:33:40.661Z,14.60
2019-03-29T04:36:10.624Z,13.57
2019-03-29T04:38:40.622Z,13.23
2019-03-29T04:41:10.552Z,14.23
2019-03-29T04:43:40.562Z,12.77
2019-03-29T04:46:10.520Z,14.07
2019-03-29T04:48:40.584Z,14.43
2019-03-29T04:51:10.495Z,13.30
2019-03-29T04:53:40.394Z,14.00
2019-03-29T04:56:10.370Z,13.30
2019-03-29T04:58:40.282Z,13.33
2019-03-29T05:01:10.262Z,11.90
2019-03-29T05:03:40.361Z,12.47
2019-03-29T05:06:10.303Z,12.57
2019-03-29T05:08:40.217Z,12.57
2019-03-29T05:11:10.084Z,12.80
2019-03-29T05:13:39.946Z,12.37
2019-03-29T05:16:09.910Z,12.43
2019-03-29T05:18:39.788Z,12.03
2019-03-29T05:21:09.767Z,11.27
2019-03-29T05:23:39.715Z,12.17
2019-03-29T05:26:09.826Z,12.57
2019-03-29T05:28:45.038Z,12.30
2019-03-29T05:31:15.005Z,10.53
2019-03-29T05:33:46.494Z,11.93
2019-03-29T05:36:16.375Z,10.83
2019-03-29T05:38:46.419Z,11.67
2019-03-29T05:41:16.358Z,12.43
2019-03-29T05:43:46.425Z,11.57
2019-03-29T05:46:16.359Z,11.67
2019-03-29T05:48:46.303Z,11.47
2019-03-29T05:51:16.178Z,11.97
2019-03-29T05:53:46.138Z,11.73
2019-03-29T05:56:16.154Z,11.40
2019-03-29T05:58:46.210Z,12.10
2019-03-29T06:01:16.045Z,12.10
2019-03-29T06:03:46.110Z,12.77
2019-03-29T06:06:16.067Z,13.60
2019-03-29T06:08:46.053Z,14.43
2019-03-29T06:11:15.953Z,13.77
2019-03-29T06:13:45.954Z,14.67
2019-03-29T06:16:15.919Z,15.00
2019-03-29T06:18:45.795Z,14.00
2019-03-29T06:21:15.742Z,15.77
2019-03-29T06:23:45.665Z,15.00
2019-03-29T06:26:15.695Z,16.07
2019-03-29T06:28:45.647Z,15.57
2019-03-29T06:31:15.668Z,15.97
2019-03-29T06:33:45.542Z,16.47
2019-03-29T06:36:17.921Z,17.20
2019-03-29T06:38:50.034Z,15.67
2019-03-29T06:41:20.590Z,18.07
2019-03-29T06:43:50.410Z,17.17
2019-03-29T06:46:20.290Z,18.57
2019-03-29T06:48:53.040Z,16.93
2019-03-29T06:51:22.989Z,17.03
2019-03-29T06:53:53.046Z,18.20
2019-03-29T06:56:23.005Z,18.00
2019-03-29T06:58:52.960Z,17.90
2019-03-29T07:01:22.828Z,18.17
2019-03-29T07:03:52.821Z,18.60
2019-03-29T07:06:22.800Z,20.00
2019-03-29T07:08:52.757Z,18.83
2019-03-29T07:11:22.796Z,17.70
2019-03-29T07:13:57.923Z,17.47
2019-03-29T07:16:24.468Z,18.83
2019-03-29T07:18:54.367Z,16.07
2019-03-29T07:21:24.381Z,18.37
2019-03-29T07:23:54.279Z,19.73
2019-03-29T07:26:24.290Z,20.00
2019-03-29T07:28:54.260Z,20.10
2019-03-29T07:31:24.299Z,19.23
2019-03-29T07:33:54.133Z,19.87
2019-03-29T07:36:24.209Z,19.77
2019-03-29T07:38:54.118Z,19.43
2019-03-29T07:41:31.706Z,19.03
2019-03-29T07:43:55.581Z,19.67
2019-03-29T07:46:25.604Z,18.60
2019-03-29T07:48:55.499Z,19.33
2019-03-29T07:51:25.478Z,17.67
2019-03-29T07:53:55.394Z,17.23
2019-03-29T07:56:25.315Z,21.67
2019-03-29T07:58:55.246Z,19.20
2019-03-29T08:01:25.178Z,24.03
2019-03-29T08:03:55.154Z,20.30
2019-03-29T08:06:25.028Z,19.50
2019-03-29T08:08:54.989Z,18.27
2019-03-29T08:11:26.514Z,18.30
2019-03-29T08:13:56.760Z,17.00
2019-03-29T08:16:26.791Z,13.13
2019-03-29T08:18:58.147Z,13.43
2019-03-29T08:21:28.091Z,14.90
2019-03-29T08:23:58.011Z,14.80
2019-03-29T08:26:27.991Z,15.20
2019-03-29T08:28:59.451Z,15.17
2019-03-29T08:31:29.400Z,15.47
2019-03-29T08:33:59.403Z,13.70
2019-03-29T08:36:29.415Z,14.20
2019-03-29T08:38:59.373Z,13.10
2019-03-29T08:41:30.487Z,14.20
2019-03-29T08:44:00.414Z,13.77
2019-03-29T08:46:30.316Z,12.70
2019-03-29T08:49:00.264Z,12.27
2019-03-29T08:51:30.308Z,11.60
2019-03-29T08:54:00.266Z,12.30
2019-03-29T08:56:30.248Z,11.23
2019-03-29T08:59:00.118Z,10.80
2019-03-29T09:01:30.142Z,10.70
2019-03-29T09:04:05.071Z,9.67
2019-03-29T09:06:32.605Z,10.13
2019-03-29T09:09:03.801Z,9.07
2019-03-29T09:11:33.733Z,7.40
2019-03-29T09:14:03.717Z,7.97
2019-03-29T09:16:33.690Z,7.80
2019-03-29T09:19:03.639Z,8.13
2019-03-29T09:21:33.679Z,8.83
2019-03-29T09:24:03.589Z,6.27
2019-03-29T09:26:33.448Z,6.37
2019-03-29T09:29:03.402Z,7.57
2019-03-29T09:31:33.393Z,6.20
2019-03-29T09:34:03.464Z,4.27
2019-03-29T09:36:33.513Z,3.87
2019-03-29T09:39:04.903Z,4.73
2019-03-29T09:41:34.848Z,4.30
2019-03-29T09:44:04.877Z,3.90
2019-03-29T09:46:36.447Z,4.07
2019-03-29T09:49:08.393Z,3.90
2019-03-29T09:51:38.080Z,4.17
2019-03-29T09:54:08.032Z,4.37
2019-03-29T09:56:39.509Z,4.90
2019-03-29T09:59:09.825Z,5.20
2019-03-29T10:01:39.782Z,6.10
2019-03-29T10:04:09.646Z,5.53
2019-03-29T10:06:39.594Z,5.47
2019-03-29T10:09:09.700Z,4.57
2019-03-29T10:11:39.742Z,5.57
2019-03-29T10:14:09.665Z,7.07
2019-03-29T10:16:39.711Z,7.23
2019-03-29T10:19:09.692Z,6.10
2019-03-29T10:21:39.744Z,5.60
2019-03-29T10:24:09.749Z,5.47
2019-03-29T10:26:39.690Z,6.43
2019-03-29T10:29:09.693Z,6.30
2019-03-29T10:31:39.996Z,6.30
2019-03-29T10:34:10.007Z,6.50
2019-03-29T10:36:39.968Z,7.47
2019-03-29T10:39:13.418Z,6.73
2019-03-29T10:41:43.285Z,7.53
2019-03-29T10:44:13.206Z,8.07
2019-03-29T10:46:43.172Z,8.73
2019-03-29T10:49:13.184Z,9.13
2019-03-29T10:51:43.087Z,9.00
2019-03-29T10:54:13.081Z,8.37
2019-03-29T10:56:43.033Z,9.00
2019-03-29T10:59:26.291Z,9.40
2019-03-29T11:01:44.561Z,9.60
2019-03-29T11:04:15.559Z,8.77
2019-03-29T11:06:45.440Z,8.07
2019-03-29T11:09:15.385Z,8.13
2019-03-29T11:11:45.356Z,8.50
2019-03-29T11:14:15.341Z,9.30
2019-03-29T11:16:45.290Z,9.47
2019-03-29T11:19:16.286Z,9.03
2019-03-29T11:21:46.275Z,9.60
2019-03-29T11:24:16.223Z,9.77
2019-03-29T11:26:46.125Z,10.63
2019-03-29T11:29:16.050Z,9.93
2019-03-29T11:31:46.059Z,9.10
2019-03-29T11:34:16.052Z,10.20
2019-03-29T11:36:45.977Z,9.27
2019-03-29T11:39:16.955Z,8.97
2019-03-29T11:41:47.139Z,9.43
2019-03-29T11:44:17.012Z,9.00
2019-03-29T11:46:46.903Z,9.30
2019-03-29T11:49:16.971Z,8.57
2019-03-29T11:51:46.983Z,9.60
2019-03-29T11:54:16.880Z,7.93
2019-03-29T11:56:47.916Z,8.23
2019-03-29T11:59:17.799Z,7.70
2019-03-29T12:01:47.789Z,7.70
2019-03-29T12:04:17.810Z,8.00
2019-03-29T12:06:47.698Z,7.50
2019-03-29T12:09:17.651Z,8.23
2019-03-29T12:11:47.519Z,8.53
2019-03-29T12:14:17.478Z,7.60
2019-03-29T12:16:47.434Z,7.90
2019-03-29T12:19:17.383Z,7.83
2019-03-29T12:21:47.240Z,8.13
2019-03-29T12:24:17.400Z,8.43
2019-03-29T12:26:47.320Z,8.30
2019-03-29T12:29:17.278Z,8.40
2019-03-29T12:31:47.128Z,8.20
2019-03-29T12:34:17.106Z,8.70
2019-03-29T12:36:50.234Z,7.80
2019-03-29T12:39:20.223Z,8.87
2019-03-29T12:41:50.198Z,7.63
2019-03-29T12:44:20.149Z,7.80
2019-03-29T12:46:50.054Z,8.80
2019-03-29T12:49:20.055Z,9.03
2019-03-29T12:51:49.919Z,8.73
2019-03-29T12:54:21.187Z,8.73
2019-03-29T12:56:51.083Z,8.33
2019-03-29T12:59:21.157Z,9.97
2019-03-29T13:01:51.086Z,9.13
2019-03-29T13:04:21.059Z,9.10
2019-03-29T13:06:51.044Z,9.23
2019-03-29T13:09:21.034Z,9.43
2019-03-29T13:11:51.059Z,9.43
2019-03-29T13:14:21.037Z,8.73
2019-03-29T13:16:51.041Z,9.13
2019-03-29T13:19:20.993Z,8.97
2019-03-29T13:21:50.974Z,9.27
2019-03-29T13:24:20.877Z,9.27
2019-03-29T13:26:54.058Z,9.23
2019-03-29T13:29:22.486Z,9.63
2019-03-29T13:31:52.605Z,9.37
2019-03-29T13:34:22.523Z,9.50
2019-03-29T13:36:52.973Z,9.50
2019-03-29T13:39:23.025Z,10.50
2019-03-29T13:41:53.666Z,11.17
2019-03-29T13:44:26.617Z,10.43
2019-03-29T13:46:55.460Z,9.97
2019-03-29T13:49:25.457Z,9.57
2019-03-29T13:51:55.982Z,9.57
2019-03-29T13:54:26.413Z,14.00
2019-03-29T13:56:57.148Z,10.23
2019-03-29T13:59:27.126Z,11.10
2019-03-29T14:01:57.032Z,11.37
2019-03-29T14:04:27.049Z,10.97
2019-03-29T14:06:57.090Z,11.67
2019-03-29T14:09:29.369Z,10.95
2019-03-29T14:11:58.934Z,10.70
2019-03-29T14:14:38.195Z,11.60
2019-03-29T14:17:00.388Z,12.20
2019-03-29T14:19:30.336Z,11.50
2019-03-29T14:22:00.246Z,11.17
2019-03-29T14:24:30.233Z,12.37
2019-03-29T14:27:00.207Z,11.30
2019-03-29T14:29:30.142Z,11.03
2019-03-29T14:32:00.070Z,12.40
2019-03-29T14:34:30.043Z,10.90
2019-03-29T14:37:00.076Z,12.33
2019-03-29T14:39:30.144Z,12.10
2019-03-29T14:42:00.028Z,12.47
2019-03-29T14:44:30.042Z,11.63
2019-03-29T14:47:00.148Z,11.83
2019-03-29T14:49:30.047Z,12.47
2019-03-29T14:52:00.184Z,12.20
2019-03-29T14:54:30.174Z,12.13
2019-03-29T14:57:00.318Z,11.73
2019-03-29T14:59:30.247Z,20.03
2019-03-29T15:02:00.333Z,16.03
2019-03-29T15:04:30.221Z,14.63
2019-03-29T15:07:00.464Z,13.53
2019-03-29T15:09:30.377Z,13.33
2019-03-29T15:12:00.311Z,14.30
2019-03-29T15:14:30.223Z,14.60
2019-03-29T15:17:00.188Z,14.60
2019-03-29T15:19:30.665Z,14.70
2019-03-29T15:22:00.605Z,15.13
2019-03-29T15:24:30.761Z,13.63
2019-03-29T15:27:00.912Z,14.77
2019-03-29T15:29:30.999Z,12.37
2019-03-29T15:32:01.155Z,13.53
2019-03-29T15:34:31.202Z,14.07
2019-03-29T15:37:02.738Z,14.90
2019-03-29T15:39:32.782Z,15.03
2019-03-29T15:42:03.029Z,15.13
2019-03-29T15:44:34.820Z,14.03
2019-03-29T15:47:04.732Z,14.63
2019-03-29T15:49:34.729Z,14.17
2019-03-29T15:52:06.451Z,14.80
2019-03-29T15:54:36.299Z,14.67
2019-03-29T15:57:06.185Z,15.77
2019-03-29T15:59:36.202Z,13.67
2019-03-29T16:02:06.212Z,14.43
2019-03-29T16:04:36.398Z,14.57
2019-03-29T16:07:06.341Z,13.80
2019-03-29T16:09:36.404Z,17.93
2019-03-29T16:12:06.275Z,14.50
2019-03-29T16:14:36.321Z,13.30
2019-03-29T16:17:06.507Z,15.10
2019-03-29T16:19:37.967Z,15.47
2019-03-29T16:22:07.807Z,14.50
2019-03-29T16:24:37.819Z,15.77
2019-03-29T16:27:07.943Z,14.13
2019-03-29T16:29:41.132Z,14.73
2019-03-29T16:32:11.463Z,14.00
2019-03-29T16:34:41.632Z,15.40
2019-03-29T16:37:14.767Z,13.63
2019-03-29T16:39:44.799Z,13.97
2019-03-29T16:42:14.681Z,15.00
2019-03-29T16:44:45.297Z,16.07
2019-03-29T16:47:16.527Z,28.40
2019-03-29T16:49:46.656Z,15.50
2019-03-29T16:52:16.711Z,15.90
2019-03-29T16:54:46.794Z,15.00
2019-03-29T16:57:16.777Z,15.97
2019-03-29T16:59:48.014Z,14.77
2019-03-29T17:02:18.040Z,15.63
2019-03-29T17:04:48.025Z,14.73
2019-03-29T17:07:18.122Z,15.43
2019-03-29T17:09:48.200Z,14.87
2019-03-29T17:12:18.147Z,16.47
2019-03-29T17:14:48.270Z,15.90
2019-03-29T17:17:18.244Z,16.10
2019-03-29T17:19:48.335Z,19.67
2019-03-29T17:22:18.314Z,16.77
2019-03-29T17:24:56.757Z,17.03
2019-03-29T17:27:19.789Z,16.77
2019-03-29T17:29:49.792Z,16.87
2019-03-29T17:32:21.565Z,16.47
2019-03-29T17:34:51.342Z,15.93
2019-03-29T17:37:21.319Z,16.13
2019-03-29T17:39:51.340Z,18.20
2019-03-29T17:42:21.293Z,16.20
2019-03-29T17:44:51.325Z,17.37
2019-03-29T17:47:21.184Z,15.60
2019-03-29T17:49:51.050Z,17.17
2019-03-29T17:52:21.028Z,20.23
2019-03-29T17:54:51.023Z,17.87
2019-03-29T17:57:20.952Z,18.67
2019-03-29T17:59:50.931Z,18.07
2019-03-29T18:02:20.927Z,19.43
2019-03-29T18:04:50.797Z,18.40
2019-03-29T18:07:20.714Z,18.80
2019-03-29T18:09:52.841Z,18.90
2019-03-29T18:12:22.792Z,17.83
2019-03-29T18:14:52.753Z,25.50
2019-03-29T18:17:22.746Z,19.67
2019-03-29T18:19:53.173Z,18.17
2019-03-29T18:22:23.150Z,20.30
2019-03-29T18:24:53.105Z,18.20
2019-03-29T18:27:23.943Z,18.07
2019-03-29T18:29:53.897Z,18.30
2019-03-29T18:32:23.992Z,18.60
2019-03-29T18:34:54.192Z,18.27
2019-03-29T18:37:24.562Z,19.30
2019-03-29T18:39:55.325Z,19.30
2019-03-29T18:42:25.240Z,19.33
2019-03-29T18:44:55.217Z,19.20
2019-03-29T18:47:25.193Z,18.63
2019-03-29T18:49:55.190Z,18.60
2019-03-29T18:52:26.670Z,18.07
2019-03-29T18:54:56.696Z,16.93
2019-03-29T18:57:26.570Z,16.50
2019-03-29T18:59:56.551Z,16.17
2019-03-29T19:02:26.549Z,16.83
2019-03-29T19:04:56.540Z,17.43
2019-03-29T19:07:30.277Z,32.17
2019-03-29T19:10:00.474Z,29.77
2019-03-29T19:12:30.420Z,25.20
2019-03-29T19:15:00.457Z,21.00
2019-03-29T19:17:32.361Z,17.90
2019-03-29T19:20:02.288Z,18.27
2019-03-29T19:22:32.416Z,16.73
2019-03-29T19:25:02.594Z,15.80
2019-03-29T19:27:32.624Z,15.67
2019-03-29T19:30:02.583Z,17.50
2019-03-29T19:32:32.547Z,14.77
2019-03-29T19:35:02.496Z,15.37
2019-03-29T19:37:32.459Z,15.23
2019-03-29T19:40:02.527Z,14.70
2019-03-29T19:42:33.972Z,14.00
2019-03-29T19:45:05.810Z,13.57
2019-03-29T19:47:35.819Z,12.73
2019-03-29T19:50:07.665Z,13.53
2019-03-29T19:52:37.576Z,13.10
2019-03-29T19:55:09.569Z,13.67
2019-03-29T19:57:40.619Z,13.90
2019-03-29T20:00:15.306Z,13.27
2019-03-29T20:02:45.380Z,12.23
2019-03-29T20:05:26.663Z,13.90
2019-03-29T20:07:57.527Z,14.10
2019-03-29T20:10:27.774Z,14.30
2019-03-29T20:12:57.725Z,13.97
2019-03-29T20:15:27.977Z,14.70
2019-03-29T20:17:58.079Z,14.93
2019-03-29T20:20:28.252Z,15.23
2019-03-29T20:22:58.812Z,15.00
2019-03-29T20:25:28.947Z,14.80
2019-03-29T20:27:59.569Z,15.20
2019-03-29T20:30:29.539Z,15.40
2019-03-29T20:32:59.424Z,15.90
2019-03-29T20:35:29.395Z,15.70
2019-03-29T20:37:59.388Z,15.73
2019-03-29T20:40:31.929Z,17.20
2019-03-29T20:43:00.900Z,17.43
2019-03-29T20:45:30.889Z,15.83
2019-03-29T20:48:03.798Z,16.13
2019-03-29T20:50:33.691Z,15.40
2019-03-29T20:53:03.826Z,16.93
2019-03-29T20:55:33.763Z,15.60
2019-03-29T20:58:03.768Z,17.53
2019-03-29T21:00:33.668Z,16.67
2019-03-29T21:03:03.679Z,19.07
2019-03-29T21:05:33.685Z,17.17
2019-03-29T21:08:03.663Z,26.80
2019-03-29T21:10:33.675Z,24.53
2019-03-29T21:13:07.002Z,40.27
2019-03-29T21:15:35.184Z,21.57
2019-03-29T21:18:05.635Z,19.27
2019-03-29T21:20:35.524Z,18.90
2019-03-29T21:23:05.389Z,19.57
2019-03-29T21:25:35.687Z,19.73
2019-03-29T21:28:06.857Z,20.07
2019-03-29T21:30:36.782Z,20.27
2019-03-29T21:33:06.769Z,21.13
2019-03-29T21:35:36.898Z,23.03
2019-03-29T21:38:06.804Z,22.30
2019-03-29T21:40:36.763Z,21.77
2019-03-29T21:43:06.682Z,23.63
2019-03-29T21:45:36.637Z,21.87
2019-03-29T21:48:27.472Z,21.93
2019-03-29T21:50:38.197Z,24.50
2019-03-29T21:53:09.584Z,23.90
2019-03-29T21:55:39.481Z,23.77
2019-03-29T21:58:09.967Z,26.63
2019-03-29T22:00:40.744Z,26.70
2019-03-29T22:03:10.665Z,25.80
2019-03-29T22:05:40.641Z,28.10
2019-03-29T22:08:10.503Z,28.13
2019-03-29T22:10:40.462Z,29.60
2019-03-29T22:13:10.379Z,30.90
2019-03-29T22:15:40.331Z,30.57
2019-03-29T22:18:10.191Z,30.63
2019-03-29T22:20:40.018Z,33.47
2019-03-29T22:23:10.152Z,31.60
2019-03-29T22:25:40.151Z,33.07
2019-03-29T22:28:10.116Z,32.87
2019-03-29T22:30:40.037Z,32.33
2019-03-29T22:33:10.015Z,31.40
2019-03-29T22:35:40.062Z,33.83
2019-03-29T22:38:09.990Z,32.63
2019-03-29T22:40:39.942Z,34.23
2019-03-29T22:43:09.941Z,31.67
2019-03-29T22:45:39.900Z,31.53
2019-03-29T22:48:09.719Z,31.43
2019-03-29T22:50:39.619Z,33.10
2019-03-29T22:53:09.519Z,30.13
2019-03-29T22:55:39.398Z,32.20
2019-03-29T22:58:10.420Z,31.90
2019-03-29T23:00:44.146Z,31.10
2019-03-29T23:03:14.077Z,30.57
2019-03-29T23:05:44.106Z,31.73
2019-03-29T23:08:14.114Z,32.07
2019-03-29T23:10:44.107Z,31.00
2019-03-29T23:13:14.020Z,30.17
2019-03-29T23:15:43.932Z,31.37
2019-03-29T23:18:13.906Z,31.87
2019-03-29T23:20:43.857Z,28.23
2019-03-29T23:23:13.782Z,28.50
2019-03-29T23:25:43.790Z,29.40
2019-03-29T23:28:13.730Z,29.27
2019-03-29T23:30:43.696Z,29.87
2019-03-29T23:33:13.625Z,29.53
2019-03-29T23:35:43.631Z,30.27
2019-03-29T23:38:13.491Z,30.60
2019-03-29T23:40:43.354Z,30.23
2019-03-29T23:43:13.289Z,31.03
2019-03-29T23:45:43.204Z,28.67
2019-03-29T23:48:13.159Z,31.40
2019-03-29T23:50:43.066Z,29.27
2019-03-29T23:53:12.980Z,30.50
2019-03-29T23:55:42.828Z,29.00
2019-03-29T23:58:12.742Z,30.07
